sensor_id;sensor_type;location;lat;lon;timestamp;temperature;humidity
21481;DHT22;10902;48.158;8.634;2023-08-31T00:03:29;10.90;99.90
21481;DHT22;10902;48.158;8.634;2023-08-31T00:07:02;11.00;99.90
21481;DHT22;10902;48.158;8.634;2023-08-31T00:13:35;11.00;99.90
21481;DHT22;10902;48.158;8.634;2023-08-31T00:16:33;10.90;99.90
21481;DHT22;10902;48.158;8.634;2023-08-31T00:19:33;10.90;99.90
21481;DHT22;10902;48.158;8.634;2023-08-31T00:22:35;10.90;99.90
21481;DHT22;10902;48.158;8.634;2023-08-31T00:25:33;10.80;99.90
21481;DHT22;10902;48.158;8.634;2023-08-31T00:28:42;10.70;99.90
21481;DHT22;10902;48.158;8.634;2023-08-31T00:31:58;10.70;99.90
21481;DHT22;10902;48.158;8.634;2023-08-31T00:35:21;10.80;99.90
21481;DHT22;10902;48.158;8.634;2023-08-31T00:38:27;10.80;99.90
21481;DHT22;10902;48.158;8.634;2023-08-31T00:41:36;10.80;99.90
21481;DHT22;10902;48.158;8.634;2023-08-31T00:44:23;10.80;99.90
21481;DHT22;10902;48.158;8.634;2023-08-31T00:47:12;10.80;99.90
21481;DHT22;10902;48.158;8.634;2023-08-31T00:50:00;10.80;99.90
21481;DHT22;10902;48.158;8.634;2023-08-31T00:52:46;10.70;99.90
21481;DHT22;10902;48.158;8.634;2023-08-31T00:55:33;10.70;99.90
21481;DHT22;10902;48.158;8.634;2023-08-31T00:58:18;10.70;99.90
21481;DHT22;10902;48.158;8.634;2023-08-31T01:04:56;10.60;99.90
21481;DHT22;10902;48.158;8.634;2023-08-31T01:11:08;10.60;99.90
21481;DHT22;10902;48.158;8.634;2023-08-31T01:14:02;10.60;99.90
21481;DHT22;10902;48.158;8.634;2023-08-31T01:16:54;10.50;99.90
21481;DHT22;10902;48.158;8.634;2023-08-31T01:19:52;10.50;99.90
21481;DHT22;10902;48.158;8.634;2023-08-31T01:23:06;10.40;99.90
21481;DHT22;10902;48.158;8.634;2023-08-31T01:25:52;10.40;99.90
21481;DHT22;10902;48.158;8.634;2023-08-31T01:28:38;10.50;99.90
21481;DHT22;10902;48.158;8.634;2023-08-31T01:31:24;10.40;99.90
21481;DHT22;10902;48.158;8.634;2023-08-31T01:34:09;10.50;99.90
21481;DHT22;10902;48.158;8.634;2023-08-31T01:36:58;10.40;99.90
21481;DHT22;10902;48.158;8.634;2023-08-31T01:39:56;10.40;99.90
21481;DHT22;10902;48.158;8.634;2023-08-31T01:42:42;10.30;99.90
21481;DHT22;10902;48.158;8.634;2023-08-31T01:45:29;10.30;99.90
21481;DHT22;10902;48.158;8.634;2023-08-31T01:48:16;10.20;99.90
21481;DHT22;10902;48.158;8.634;2023-08-31T01:51:01;10.20;99.90
21481;DHT22;10902;48.158;8.634;2023-08-31T01:53:47;10.20;99.90
21481;DHT22;10902;48.158;8.634;2023-08-31T01:56:32;10.20;99.90
21481;DHT22;10902;48.158;8.634;2023-08-31T01:59:18;10.20;99.90
21481;DHT22;10902;48.158;8.634;2023-08-31T02:02:03;10.30;99.90
21481;DHT22;10902;48.158;8.634;2023-08-31T02:04:49;10.40;99.90
21481;DHT22;10902;48.158;8.634;2023-08-31T02:07:36;10.40;99.90
21481;DHT22;10902;48.158;8.634;2023-08-31T02:10:22;10.40;99.90
21481;DHT22;10902;48.158;8.634;2023-08-31T02:13:08;10.30;99.90
21481;DHT22;10902;48.158;8.634;2023-08-31T02:15:54;10.30;99.90
21481;DHT22;10902;48.158;8.634;2023-08-31T02:18:41;10.30;99.90
21481;DHT22;10902;48.158;8.634;2023-08-31T02:21:26;10.30;99.90
21481;DHT22;10902;48.158;8.634;2023-08-31T02:24:12;10.30;99.90
21481;DHT22;10902;48.158;8.634;2023-08-31T02:26:57;10.40;99.90
21481;DHT22;10902;48.158;8.634;2023-08-31T02:29:43;10.40;99.90
21481;DHT22;10902;48.158;8.634;2023-08-31T02:32:28;10.30;99.90
21481;DHT22;10902;48.158;8.634;2023-08-31T02:35:14;10.30;99.90
21481;DHT22;10902;48.158;8.634;2023-08-31T02:38:00;10.30;99.90
21481;DHT22;10902;48.158;8.634;2023-08-31T02:40:49;10.30;99.90
21481;DHT22;10902;48.158;8.634;2023-08-31T02:43:35;10.30;99.90
21481;DHT22;10902;48.158;8.634;2023-08-31T02:46:20;10.30;99.90
21481;DHT22;10902;48.158;8.634;2023-08-31T02:49:06;10.30;99.90
21481;DHT22;10902;48.158;8.634;2023-08-31T02:51:51;10.30;99.90
21481;DHT22;10902;48.158;8.634;2023-08-31T02:54:37;10.20;99.90
21481;DHT22;10902;48.158;8.634;2023-08-31T02:57:23;10.20;99.90
21481;DHT22;10902;48.158;8.634;2023-08-31T03:00:09;10.20;99.90
21481;DHT22;10902;48.158;8.634;2023-08-31T03:02:58;10.10;99.90
21481;DHT22;10902;48.158;8.634;2023-08-31T03:05:44;10.00;99.90
21481;DHT22;10902;48.158;8.634;2023-08-31T03:08:30;10.00;99.90
21481;DHT22;10902;48.158;8.634;2023-08-31T03:11:15;10.00;99.90
21481;DHT22;10902;48.158;8.634;2023-08-31T03:14:01;10.10;99.90
21481;DHT22;10902;48.158;8.634;2023-08-31T03:16:47;10.10;99.90
21481;DHT22;10902;48.158;8.634;2023-08-31T03:19:34;10.10;99.90
21481;DHT22;10902;48.158;8.634;2023-08-31T03:22:19;10.10;99.90
21481;DHT22;10902;48.158;8.634;2023-08-31T03:25:05;10.10;99.90
21481;DHT22;10902;48.158;8.634;2023-08-31T03:27:51;10.10;99.90
21481;DHT22;10902;48.158;8.634;2023-08-31T03:30:36;10.10;99.90
21481;DHT22;10902;48.158;8.634;2023-08-31T03:33:22;10.00;99.90
21481;DHT22;10902;48.158;8.634;2023-08-31T03:36:08;10.00;99.90
21481;DHT22;10902;48.158;8.634;2023-08-31T03:38:53;10.00;99.90
21481;DHT22;10902;48.158;8.634;2023-08-31T03:41:39;10.00;99.90
21481;DHT22;10902;48.158;8.634;2023-08-31T03:44:24;10.00;99.90
21481;DHT22;10902;48.158;8.634;2023-08-31T03:47:10;10.00;99.90
21481;DHT22;10902;48.158;8.634;2023-08-31T03:49:56;10.00;99.90
21481;DHT22;10902;48.158;8.634;2023-08-31T03:52:41;10.00;99.90
21481;DHT22;10902;48.158;8.634;2023-08-31T03:55:27;10.00;99.90
21481;DHT22;10902;48.158;8.634;2023-08-31T03:58:13;10.00;99.90
21481;DHT22;10902;48.158;8.634;2023-08-31T04:00:58;10.00;99.90
21481;DHT22;10902;48.158;8.634;2023-08-31T04:03:44;10.00;99.90
21481;DHT22;10902;48.158;8.634;2023-08-31T04:06:30;9.90;99.90
21481;DHT22;10902;48.158;8.634;2023-08-31T04:09:15;10.00;99.90
21481;DHT22;10902;48.158;8.634;2023-08-31T04:12:01;9.90;99.90
21481;DHT22;10902;48.158;8.634;2023-08-31T04:14:46;9.90;99.90
21481;DHT22;10902;48.158;8.634;2023-08-31T04:17:32;9.80;99.90
21481;DHT22;10902;48.158;8.634;2023-08-31T04:20:18;9.80;99.90
21481;DHT22;10902;48.158;8.634;2023-08-31T04:23:03;9.90;99.90
21481;DHT22;10902;48.158;8.634;2023-08-31T04:25:50;9.90;99.90
21481;DHT22;10902;48.158;8.634;2023-08-31T04:28:36;10.00;99.90
21481;DHT22;10902;48.158;8.634;2023-08-31T04:31:22;10.10;99.90
21481;DHT22;10902;48.158;8.634;2023-08-31T04:34:08;10.10;99.90
21481;DHT22;10902;48.158;8.634;2023-08-31T04:36:54;10.10;99.90
21481;DHT22;10902;48.158;8.634;2023-08-31T04:39:39;10.10;99.90
21481;DHT22;10902;48.158;8.634;2023-08-31T04:42:25;10.00;99.90
21481;DHT22;10902;48.158;8.634;2023-08-31T04:45:11;9.90;99.90
21481;DHT22;10902;48.158;8.634;2023-08-31T04:47:57;9.90;99.90
21481;DHT22;10902;48.158;8.634;2023-08-31T04:50:43;9.90;99.90
21481;DHT22;10902;48.158;8.634;2023-08-31T04:53:29;9.80;99.90
21481;DHT22;10902;48.158;8.634;2023-08-31T04:56:18;9.80;99.90
21481;DHT22;10902;48.158;8.634;2023-08-31T04:59:03;9.80;99.90
21481;DHT22;10902;48.158;8.634;2023-08-31T05:01:49;9.80;99.90
21481;DHT22;10902;48.158;8.634;2023-08-31T05:04:35;9.70;99.90
21481;DHT22;10902;48.158;8.634;2023-08-31T05:07:20;9.70;99.90
21481;DHT22;10902;48.158;8.634;2023-08-31T05:10:07;9.80;99.90
21481;DHT22;10902;48.158;8.634;2023-08-31T05:12:52;9.80;99.90
21481;DHT22;10902;48.158;8.634;2023-08-31T05:15:38;9.80;99.90
21481;DHT22;10902;48.158;8.634;2023-08-31T05:18:24;9.80;99.90
21481;DHT22;10902;48.158;8.634;2023-08-31T05:21:09;9.80;99.90
21481;DHT22;10902;48.158;8.634;2023-08-31T05:23:55;9.80;99.90
21481;DHT22;10902;48.158;8.634;2023-08-31T05:26:40;9.90;99.90
21481;DHT22;10902;48.158;8.634;2023-08-31T05:29:26;9.90;99.90
21481;DHT22;10902;48.158;8.634;2023-08-31T05:32:11;9.90;99.90
21481;DHT22;10902;48.158;8.634;2023-08-31T05:34:57;10.10;99.90
21481;DHT22;10902;48.158;8.634;2023-08-31T05:37:44;10.10;99.90
21481;DHT22;10902;48.158;8.634;2023-08-31T05:40:30;10.10;99.90
21481;DHT22;10902;48.158;8.634;2023-08-31T05:43:16;10.20;99.90
21481;DHT22;10902;48.158;8.634;2023-08-31T05:46:02;10.30;99.90
21481;DHT22;10902;48.158;8.634;2023-08-31T05:48:48;10.60;99.90
21481;DHT22;10902;48.158;8.634;2023-08-31T05:51:34;10.70;99.90
21481;DHT22;10902;48.158;8.634;2023-08-31T05:54:19;10.80;99.90
21481;DHT22;10902;48.158;8.634;2023-08-31T05:57:05;10.70;99.90
21481;DHT22;10902;48.158;8.634;2023-08-31T05:59:51;10.70;99.90
21481;DHT22;10902;48.158;8.634;2023-08-31T06:02:36;10.40;99.90
21481;DHT22;10902;48.158;8.634;2023-08-31T06:05:22;10.40;99.90
21481;DHT22;10902;48.158;8.634;2023-08-31T06:08:08;10.40;99.90
21481;DHT22;10902;48.158;8.634;2023-08-31T06:10:53;10.50;99.90
21481;DHT22;10902;48.158;8.634;2023-08-31T06:13:40;10.60;99.90
21481;DHT22;10902;48.158;8.634;2023-08-31T06:16:25;10.70;99.90
21481;DHT22;10902;48.158;8.634;2023-08-31T06:19:11;10.70;99.90
21481;DHT22;10902;48.158;8.634;2023-08-31T06:22:00;10.70;99.90
21481;DHT22;10902;48.158;8.634;2023-08-31T06:24:46;10.80;99.90
21481;DHT22;10902;48.158;8.634;2023-08-31T06:27:31;10.80;99.90
21481;DHT22;10902;48.158;8.634;2023-08-31T06:30:17;10.90;99.90
21481;DHT22;10902;48.158;8.634;2023-08-31T06:33:04;10.90;99.90
21481;DHT22;10902;48.158;8.634;2023-08-31T06:35:50;11.00;99.90
21481;DHT22;10902;48.158;8.634;2023-08-31T06:38:37;11.00;99.90
21481;DHT22;10902;48.158;8.634;2023-08-31T06:41:22;11.00;99.90
21481;DHT22;10902;48.158;8.634;2023-08-31T06:44:08;10.90;99.90
21481;DHT22;10902;48.158;8.634;2023-08-31T06:46:54;10.90;99.90
21481;DHT22;10902;48.158;8.634;2023-08-31T06:49:39;10.80;99.90
21481;DHT22;10902;48.158;8.634;2023-08-31T06:52:27;10.80;99.90
21481;DHT22;10902;48.158;8.634;2023-08-31T06:55:12;10.90;99.90
21481;DHT22;10902;48.158;8.634;2023-08-31T06:57:58;11.10;99.90
21481;DHT22;10902;48.158;8.634;2023-08-31T07:00:43;11.40;99.90
21481;DHT22;10902;48.158;8.634;2023-08-31T07:03:29;11.60;99.90
21481;DHT22;10902;48.158;8.634;2023-08-31T07:06:15;11.70;99.90
21481;DHT22;10902;48.158;8.634;2023-08-31T07:09:00;11.90;99.90
21481;DHT22;10902;48.158;8.634;2023-08-31T07:11:46;12.00;99.90
21481;DHT22;10902;48.158;8.634;2023-08-31T07:14:31;11.80;99.90
21481;DHT22;10902;48.158;8.634;2023-08-31T07:17:20;11.80;99.90
21481;DHT22;10902;48.158;8.634;2023-08-31T07:20:06;11.90;99.90
21481;DHT22;10902;48.158;8.634;2023-08-31T07:22:53;12.10;99.90
21481;DHT22;10902;48.158;8.634;2023-08-31T07:25:40;12.10;99.90
21481;DHT22;10902;48.158;8.634;2023-08-31T07:28:25;12.30;99.90
21481;DHT22;10902;48.158;8.634;2023-08-31T07:31:12;12.30;99.90
21481;DHT22;10902;48.158;8.634;2023-08-31T07:33:58;12.40;99.90
21481;DHT22;10902;48.158;8.634;2023-08-31T07:36:43;12.50;99.90
21481;DHT22;10902;48.158;8.634;2023-08-31T07:39:29;12.60;99.90
21481;DHT22;10902;48.158;8.634;2023-08-31T07:42:15;12.60;99.90
21481;DHT22;10902;48.158;8.634;2023-08-31T07:45:00;12.70;99.90
21481;DHT22;10902;48.158;8.634;2023-08-31T07:47:46;12.80;99.90
21481;DHT22;10902;48.158;8.634;2023-08-31T07:50:32;13.10;99.90
21481;DHT22;10902;48.158;8.634;2023-08-31T07:53:17;13.10;99.90
21481;DHT22;10902;48.158;8.634;2023-08-31T07:56:03;13.30;99.90
21481;DHT22;10902;48.158;8.634;2023-08-31T07:58:49;13.50;99.90
21481;DHT22;10902;48.158;8.634;2023-08-31T08:01:35;13.80;99.90
21481;DHT22;10902;48.158;8.634;2023-08-31T08:04:20;13.90;99.90
21481;DHT22;10902;48.158;8.634;2023-08-31T08:07:06;14.20;99.90
21481;DHT22;10902;48.158;8.634;2023-08-31T08:09:51;14.40;99.90
21481;DHT22;10902;48.158;8.634;2023-08-31T08:12:41;14.60;99.90
21481;DHT22;10902;48.158;8.634;2023-08-31T08:15:29;14.50;99.90
21481;DHT22;10902;48.158;8.634;2023-08-31T08:18:14;14.40;99.90
21481;DHT22;10902;48.158;8.634;2023-08-31T08:21:00;14.20;99.90
21481;DHT22;10902;48.158;8.634;2023-08-31T08:23:46;14.40;99.90
21481;DHT22;10902;48.158;8.634;2023-08-31T08:26:31;14.70;99.90
21481;DHT22;10902;48.158;8.634;2023-08-31T08:29:17;14.70;99.90
21481;DHT22;10902;48.158;8.634;2023-08-31T08:32:02;15.00;99.90
21481;DHT22;10902;48.158;8.634;2023-08-31T08:34:49;14.90;99.90
21481;DHT22;10902;48.158;8.634;2023-08-31T08:37:35;15.00;99.90
21481;DHT22;10902;48.158;8.634;2023-08-31T08:40:21;14.90;99.90
21481;DHT22;10902;48.158;8.634;2023-08-31T08:43:07;14.70;99.90
21481;DHT22;10902;48.158;8.634;2023-08-31T08:45:54;14.40;99.90
21481;DHT22;10902;48.158;8.634;2023-08-31T08:48:41;14.60;99.90
21481;DHT22;10902;48.158;8.634;2023-08-31T08:51:28;15.20;99.90
21481;DHT22;10902;48.158;8.634;2023-08-31T08:54:13;15.50;99.90
21481;DHT22;10902;48.158;8.634;2023-08-31T08:56:59;15.20;99.90
21481;DHT22;10902;48.158;8.634;2023-08-31T08:59:46;14.60;99.90
21481;DHT22;10902;48.158;8.634;2023-08-31T09:02:32;14.90;99.90
21481;DHT22;10902;48.158;8.634;2023-08-31T09:05:17;14.90;99.90
21481;DHT22;10902;48.158;8.634;2023-08-31T09:08:08;15.20;99.90
21481;DHT22;10902;48.158;8.634;2023-08-31T09:10:58;15.70;99.90
21481;DHT22;10902;48.158;8.634;2023-08-31T09:13:43;16.20;99.90
21481;DHT22;10902;48.158;8.634;2023-08-31T09:16:30;16.30;99.90
21481;DHT22;10902;48.158;8.634;2023-08-31T09:19:24;16.10;99.90
21481;DHT22;10902;48.158;8.634;2023-08-31T09:22:10;15.40;99.90
21481;DHT22;10902;48.158;8.634;2023-08-31T09:24:56;15.80;99.90
21481;DHT22;10902;48.158;8.634;2023-08-31T09:27:42;15.30;99.90
21481;DHT22;10902;48.158;8.634;2023-08-31T09:30:37;15.80;99.90
21481;DHT22;10902;48.158;8.634;2023-08-31T09:33:23;15.90;99.90
21481;DHT22;10902;48.158;8.634;2023-08-31T09:36:09;16.10;99.90
21481;DHT22;10902;48.158;8.634;2023-08-31T09:38:58;16.10;99.90
21481;DHT22;10902;48.158;8.634;2023-08-31T09:41:54;15.70;99.90
21481;DHT22;10902;48.158;8.634;2023-08-31T09:44:42;15.40;99.90
21481;DHT22;10902;48.158;8.634;2023-08-31T09:47:28;15.80;99.90
21481;DHT22;10902;48.158;8.634;2023-08-31T09:50:14;16.00;99.90
21481;DHT22;10902;48.158;8.634;2023-08-31T09:53:04;16.40;99.90
21481;DHT22;10902;48.158;8.634;2023-08-31T09:55:51;17.00;99.90
21481;DHT22;10902;48.158;8.634;2023-08-31T09:58:37;17.40;99.90
21481;DHT22;10902;48.158;8.634;2023-08-31T10:01:23;17.80;99.90
21481;DHT22;10902;48.158;8.634;2023-08-31T10:04:09;17.30;99.90
21481;DHT22;10902;48.158;8.634;2023-08-31T10:06:55;17.30;99.90
21481;DHT22;10902;48.158;8.634;2023-08-31T10:09:40;18.40;99.90
21481;DHT22;10902;48.158;8.634;2023-08-31T10:12:27;18.90;99.90
21481;DHT22;10902;48.158;8.634;2023-08-31T10:15:13;18.50;99.90
21481;DHT22;10902;48.158;8.634;2023-08-31T10:18:04;17.20;99.90
21481;DHT22;10902;48.158;8.634;2023-08-31T10:20:50;17.40;99.90
21481;DHT22;10902;48.158;8.634;2023-08-31T10:23:35;16.50;99.90
21481;DHT22;10902;48.158;8.634;2023-08-31T10:26:29;16.60;99.90
21481;DHT22;10902;48.158;8.634;2023-08-31T10:29:26;16.80;99.90
21481;DHT22;10902;48.158;8.634;2023-08-31T10:32:19;16.70;99.90
21481;DHT22;10902;48.158;8.634;2023-08-31T10:35:07;16.40;99.90
21481;DHT22;10902;48.158;8.634;2023-08-31T10:38:16;15.50;99.90
21481;DHT22;10902;48.158;8.634;2023-08-31T10:41:17;16.20;99.90
21481;DHT22;10902;48.158;8.634;2023-08-31T10:44:22;16.20;99.90
21481;DHT22;10902;48.158;8.634;2023-08-31T10:47:08;16.70;99.90
21481;DHT22;10902;48.158;8.634;2023-08-31T10:49:54;17.90;99.90
21481;DHT22;10902;48.158;8.634;2023-08-31T10:52:45;18.50;99.90
21481;DHT22;10902;48.158;8.634;2023-08-31T10:55:31;18.30;99.90
21481;DHT22;10902;48.158;8.634;2023-08-31T10:58:17;17.90;99.90
21481;DHT22;10902;48.158;8.634;2023-08-31T11:01:02;17.60;99.90
21481;DHT22;10902;48.158;8.634;2023-08-31T11:03:58;17.40;99.90
21481;DHT22;10902;48.158;8.634;2023-08-31T11:06:44;18.40;99.90
21481;DHT22;10902;48.158;8.634;2023-08-31T11:09:29;18.60;99.90
21481;DHT22;10902;48.158;8.634;2023-08-31T11:12:16;18.90;99.90
21481;DHT22;10902;48.158;8.634;2023-08-31T11:15:02;18.40;99.90
21481;DHT22;10902;48.158;8.634;2023-08-31T11:17:50;18.50;99.90
21481;DHT22;10902;48.158;8.634;2023-08-31T11:20:36;18.60;99.90
21481;DHT22;10902;48.158;8.634;2023-08-31T11:23:22;18.40;99.90
21481;DHT22;10902;48.158;8.634;2023-08-31T11:26:09;18.90;99.90
21481;DHT22;10902;48.158;8.634;2023-08-31T11:28:56;18.40;99.90
21481;DHT22;10902;48.158;8.634;2023-08-31T11:31:41;18.20;99.90
21481;DHT22;10902;48.158;8.634;2023-08-31T11:34:27;17.70;99.90
21481;DHT22;10902;48.158;8.634;2023-08-31T11:37:13;17.70;99.90
21481;DHT22;10902;48.158;8.634;2023-08-31T11:40:05;17.10;99.90
21481;DHT22;10902;48.158;8.634;2023-08-31T11:42:51;17.00;99.90
21481;DHT22;10902;48.158;8.634;2023-08-31T11:45:38;17.10;99.90
21481;DHT22;10902;48.158;8.634;2023-08-31T11:48:24;17.90;99.90
21481;DHT22;10902;48.158;8.634;2023-08-31T11:51:11;18.00;99.90
21481;DHT22;10902;48.158;8.634;2023-08-31T11:53:57;18.70;99.90
21481;DHT22;10902;48.158;8.634;2023-08-31T11:56:46;19.00;99.90
21481;DHT22;10902;48.158;8.634;2023-08-31T11:59:38;18.90;99.90
21481;DHT22;10902;48.158;8.634;2023-08-31T12:02:23;19.10;99.90
21481;DHT22;10902;48.158;8.634;2023-08-31T12:05:09;19.70;99.90
21481;DHT22;10902;48.158;8.634;2023-08-31T12:07:55;19.20;99.90
21481;DHT22;10902;48.158;8.634;2023-08-31T12:10:42;19.80;99.90
21481;DHT22;10902;48.158;8.634;2023-08-31T12:13:28;20.60;99.90
21481;DHT22;10902;48.158;8.634;2023-08-31T12:16:14;20.10;99.90
21481;DHT22;10902;48.158;8.634;2023-08-31T12:19:04;19.50;99.90
21481;DHT22;10902;48.158;8.634;2023-08-31T12:21:50;19.50;99.90
21481;DHT22;10902;48.158;8.634;2023-08-31T12:24:40;19.90;99.90
21481;DHT22;10902;48.158;8.634;2023-08-31T12:27:26;19.90;99.90
21481;DHT22;10902;48.158;8.634;2023-08-31T12:30:12;20.50;99.90
21481;DHT22;10902;48.158;8.634;2023-08-31T12:32:58;19.60;99.90
21481;DHT22;10902;48.158;8.634;2023-08-31T12:35:43;19.00;99.90
21481;DHT22;10902;48.158;8.634;2023-08-31T12:38:29;18.60;99.90
21481;DHT22;10902;48.158;8.634;2023-08-31T12:41:15;18.60;99.90
21481;DHT22;10902;48.158;8.634;2023-08-31T12:44:00;18.40;99.90
21481;DHT22;10902;48.158;8.634;2023-08-31T12:46:46;18.50;99.90
21481;DHT22;10902;48.158;8.634;2023-08-31T12:49:31;19.10;99.90
21481;DHT22;10902;48.158;8.634;2023-08-31T12:52:17;18.80;99.90
21481;DHT22;10902;48.158;8.634;2023-08-31T12:55:03;18.60;99.90
21481;DHT22;10902;48.158;8.634;2023-08-31T12:57:49;18.90;99.90
21481;DHT22;10902;48.158;8.634;2023-08-31T13:00:35;19.20;99.90
21481;DHT22;10902;48.158;8.634;2023-08-31T13:03:20;19.40;99.90
21481;DHT22;10902;48.158;8.634;2023-08-31T13:06:06;19.70;99.90
21481;DHT22;10902;48.158;8.634;2023-08-31T13:08:52;20.20;99.90
21481;DHT22;10902;48.158;8.634;2023-08-31T13:11:37;19.80;99.90
21481;DHT22;10902;48.158;8.634;2023-08-31T13:14:23;20.10;99.90
21481;DHT22;10902;48.158;8.634;2023-08-31T13:17:09;20.70;99.90
21481;DHT22;10902;48.158;8.634;2023-08-31T13:19:58;20.90;99.90
21481;DHT22;10902;48.158;8.634;2023-08-31T13:22:44;20.80;99.90
21481;DHT22;10902;48.158;8.634;2023-08-31T13:25:31;20.50;99.90
21481;DHT22;10902;48.158;8.634;2023-08-31T13:28:16;20.10;99.90
21481;DHT22;10902;48.158;8.634;2023-08-31T13:31:02;19.90;99.90
21481;DHT22;10902;48.158;8.634;2023-08-31T13:33:48;20.40;99.90
21481;DHT22;10902;48.158;8.634;2023-08-31T13:36:34;20.90;99.90
21481;DHT22;10902;48.158;8.634;2023-08-31T13:39:20;22.00;99.90
21481;DHT22;10902;48.158;8.634;2023-08-31T13:42:06;21.70;99.90
21481;DHT22;10902;48.158;8.634;2023-08-31T13:44:52;20.50;99.90
21481;DHT22;10902;48.158;8.634;2023-08-31T13:47:37;20.00;99.90
21481;DHT22;10902;48.158;8.634;2023-08-31T13:50:24;20.40;99.90
21481;DHT22;10902;48.158;8.634;2023-08-31T13:53:10;19.60;99.90
21481;DHT22;10902;48.158;8.634;2023-08-31T13:55:55;19.10;99.90
21481;DHT22;10902;48.158;8.634;2023-08-31T13:58:41;19.00;99.90
21481;DHT22;10902;48.158;8.634;2023-08-31T14:01:27;19.00;99.90
21481;DHT22;10902;48.158;8.634;2023-08-31T14:04:12;18.80;99.90
21481;DHT22;10902;48.158;8.634;2023-08-31T14:06:58;18.80;99.90
21481;DHT22;10902;48.158;8.634;2023-08-31T14:09:43;18.60;99.90
21481;DHT22;10902;48.158;8.634;2023-08-31T14:12:29;18.80;99.90
21481;DHT22;10902;48.158;8.634;2023-08-31T14:15:14;18.60;99.90
21481;DHT22;10902;48.158;8.634;2023-08-31T14:18:00;18.60;99.90
21481;DHT22;10902;48.158;8.634;2023-08-31T14:20:46;18.80;99.90
21481;DHT22;10902;48.158;8.634;2023-08-31T14:23:31;18.90;99.90
21481;DHT22;10902;48.158;8.634;2023-08-31T14:26:17;18.90;99.90
21481;DHT22;10902;48.158;8.634;2023-08-31T14:29:02;19.00;99.90
21481;DHT22;10902;48.158;8.634;2023-08-31T14:31:48;19.40;99.90
21481;DHT22;10902;48.158;8.634;2023-08-31T14:34:33;19.10;99.90
21481;DHT22;10902;48.158;8.634;2023-08-31T14:37:19;19.00;99.90
21481;DHT22;10902;48.158;8.634;2023-08-31T14:40:05;18.80;99.90
21481;DHT22;10902;48.158;8.634;2023-08-31T14:42:52;18.30;99.90
21481;DHT22;10902;48.158;8.634;2023-08-31T14:45:37;18.10;99.90
21481;DHT22;10902;48.158;8.634;2023-08-31T14:48:23;18.00;99.90
21481;DHT22;10902;48.158;8.634;2023-08-31T14:51:10;17.90;99.90
21481;DHT22;10902;48.158;8.634;2023-08-31T14:53:55;18.00;99.90
21481;DHT22;10902;48.158;8.634;2023-08-31T14:56:41;18.10;99.90
21481;DHT22;10902;48.158;8.634;2023-08-31T14:59:26;18.10;99.90
21481;DHT22;10902;48.158;8.634;2023-08-31T15:02:12;18.30;99.90
21481;DHT22;10902;48.158;8.634;2023-08-31T15:04:59;18.40;99.90
21481;DHT22;10902;48.158;8.634;2023-08-31T15:07:45;18.50;99.90
21481;DHT22;10902;48.158;8.634;2023-08-31T15:10:30;18.30;99.90
21481;DHT22;10902;48.158;8.634;2023-08-31T15:13:16;18.50;99.90
21481;DHT22;10902;48.158;8.634;2023-08-31T15:16:04;18.70;99.90
21481;DHT22;10902;48.158;8.634;2023-08-31T15:18:50;18.50;99.90
21481;DHT22;10902;48.158;8.634;2023-08-31T15:21:35;18.50;99.90
21481;DHT22;10902;48.158;8.634;2023-08-31T15:24:21;18.50;99.90
21481;DHT22;10902;48.158;8.634;2023-08-31T15:27:06;18.40;99.90
21481;DHT22;10902;48.158;8.634;2023-08-31T15:29:52;18.10;99.90
21481;DHT22;10902;48.158;8.634;2023-08-31T15:32:38;18.00;99.90
21481;DHT22;10902;48.158;8.634;2023-08-31T15:35:23;18.10;99.90
21481;DHT22;10902;48.158;8.634;2023-08-31T15:38:09;17.90;99.90
21481;DHT22;10902;48.158;8.634;2023-08-31T15:40:55;17.40;99.90
21481;DHT22;10902;48.158;8.634;2023-08-31T15:43:41;17.30;99.90
21481;DHT22;10902;48.158;8.634;2023-08-31T15:46:27;17.30;99.90
21481;DHT22;10902;48.158;8.634;2023-08-31T15:49:13;17.20;99.90
21481;DHT22;10902;48.158;8.634;2023-08-31T15:51:58;17.30;99.90
21481;DHT22;10902;48.158;8.634;2023-08-31T15:54:44;17.20;99.90
21481;DHT22;10902;48.158;8.634;2023-08-31T15:57:29;17.10;99.90
21481;DHT22;10902;48.158;8.634;2023-08-31T16:00:15;17.10;99.90
21481;DHT22;10902;48.158;8.634;2023-08-31T16:03:05;17.00;99.90
21481;DHT22;10902;48.158;8.634;2023-08-31T16:05:51;16.90;99.90
21481;DHT22;10902;48.158;8.634;2023-08-31T16:08:37;17.00;99.90
21481;DHT22;10902;48.158;8.634;2023-08-31T16:11:22;17.00;99.90
21481;DHT22;10902;48.158;8.634;2023-08-31T16:14:09;17.00;99.90
21481;DHT22;10902;48.158;8.634;2023-08-31T16:16:55;16.90;99.90
21481;DHT22;10902;48.158;8.634;2023-08-31T16:19:40;16.90;99.90
21481;DHT22;10902;48.158;8.634;2023-08-31T16:22:26;16.80;99.90
21481;DHT22;10902;48.158;8.634;2023-08-31T16:25:13;16.90;99.90
21481;DHT22;10902;48.158;8.634;2023-08-31T16:28:02;16.90;99.90
21481;DHT22;10902;48.158;8.634;2023-08-31T16:30:49;16.90;99.90
21481;DHT22;10902;48.158;8.634;2023-08-31T16:33:34;16.90;99.90
21481;DHT22;10902;48.158;8.634;2023-08-31T16:36:20;16.80;99.90
21481;DHT22;10902;48.158;8.634;2023-08-31T16:39:05;16.80;99.90
21481;DHT22;10902;48.158;8.634;2023-08-31T16:41:51;16.70;99.90
21481;DHT22;10902;48.158;8.634;2023-08-31T16:44:36;16.70;99.90
21481;DHT22;10902;48.158;8.634;2023-08-31T16:47:22;16.60;99.90
21481;DHT22;10902;48.158;8.634;2023-08-31T16:50:09;16.60;99.90
21481;DHT22;10902;48.158;8.634;2023-08-31T16:52:56;16.60;99.90
21481;DHT22;10902;48.158;8.634;2023-08-31T16:55:42;16.60;99.90
21481;DHT22;10902;48.158;8.634;2023-08-31T16:58:27;16.60;99.90
21481;DHT22;10902;48.158;8.634;2023-08-31T17:01:13;16.40;99.90
21481;DHT22;10902;48.158;8.634;2023-08-31T17:03:59;16.40;99.90
21481;DHT22;10902;48.158;8.634;2023-08-31T17:06:44;16.40;99.90
21481;DHT22;10902;48.158;8.634;2023-08-31T17:09:30;16.30;99.90
21481;DHT22;10902;48.158;8.634;2023-08-31T17:12:16;16.20;99.90
21481;DHT22;10902;48.158;8.634;2023-08-31T17:15:02;16.20;99.90
21481;DHT22;10902;48.158;8.634;2023-08-31T17:17:49;16.10;99.90
21481;DHT22;10902;48.158;8.634;2023-08-31T17:20:35;16.10;99.90
21481;DHT22;10902;48.158;8.634;2023-08-31T17:23:21;16.10;99.90
21481;DHT22;10902;48.158;8.634;2023-08-31T17:26:06;16.10;99.90
21481;DHT22;10902;48.158;8.634;2023-08-31T17:28:52;16.00;99.90
21481;DHT22;10902;48.158;8.634;2023-08-31T17:31:38;16.00;99.90
21481;DHT22;10902;48.158;8.634;2023-08-31T17:34:23;15.90;99.90
21481;DHT22;10902;48.158;8.634;2023-08-31T17:37:09;15.80;99.90
21481;DHT22;10902;48.158;8.634;2023-08-31T17:39:55;15.70;99.90
21481;DHT22;10902;48.158;8.634;2023-08-31T17:42:41;15.70;99.90
21481;DHT22;10902;48.158;8.634;2023-08-31T17:45:26;15.70;99.90
21481;DHT22;10902;48.158;8.634;2023-08-31T17:48:12;15.70;99.90
21481;DHT22;10902;48.158;8.634;2023-08-31T17:50:59;15.70;99.90